sensor_id;sensor_type;location;lat;lon;timestamp;pressure;altitude;pressure_sealevel;temperature;humidity
75895;BME280;64573;50.328;15.014;2023-10-08T00:01:09;98902.25;;;21.57;100.00
75895;BME280;64573;50.328;15.014;2023-10-08T00:03:42;98904.13;;;21.78;100.00
75895;BME280;64573;50.328;15.014;2023-10-08T00:06:13;98901.38;;;21.73;100.00
75895;BME280;64573;50.328;15.014;2023-10-08T00:08:40;98906.00;;;21.51;100.00
75895;BME280;64573;50.328;15.014;2023-10-08T00:11:05;98909.28;;;21.74;100.00
75895;BME280;64573;50.328;15.014;2023-10-08T00:13:32;98902.69;;;21.48;100.00
75895;BME280;64573;50.328;15.014;2023-10-08T00:16:06;98890.22;;;21.80;100.00
75895;BME280;64573;50.328;15.014;2023-10-08T00:18:35;98888.50;;;21.46;100.00
75895;BME280;64573;50.328;15.014;2023-10-08T00:21:01;98882.59;;;21.55;100.00
75895;BME280;64573;50.328;15.014;2023-10-08T00:23:36;98873.94;;;21.63;100.00
75895;BME280;64573;50.328;15.014;2023-10-08T00:26:10;98870.28;;;21.52;100.00
75895;BME280;64573;50.328;15.014;2023-10-08T00:28:35;98865.19;;;21.61;100.00
75895;BME280;64573;50.328;15.014;2023-10-08T00:31:01;98874.63;;;21.75;100.00
75895;BME280;64573;50.328;15.014;2023-10-08T00:33:39;98875.22;;;21.55;100.00
75895;BME280;64573;50.328;15.014;2023-10-08T00:36:06;98861.06;;;21.36;100.00
75895;BME280;64573;50.328;15.014;2023-10-08T00:38:48;98864.88;;;21.35;100.00
75895;BME280;64573;50.328;15.014;2023-10-08T00:41:23;98864.19;;;21.45;100.00
75895;BME280;64573;50.328;15.014;2023-10-08T00:43:53;98867.78;;;21.29;100.00
75895;BME280;64573;50.328;15.014;2023-10-08T00:46:21;98865.91;;;21.78;100.00
75895;BME280;64573;50.328;15.014;2023-10-08T00:48:53;98865.94;;;21.56;100.00
75895;BME280;64573;50.328;15.014;2023-10-08T00:51:21;98855.88;;;21.35;100.00
75895;BME280;64573;50.328;15.014;2023-10-08T00:53:49;98863.19;;;21.51;100.00
75895;BME280;64573;50.328;15.014;2023-10-08T00:58:42;98844.44;;;21.60;100.00
75895;BME280;64573;50.328;15.014;2023-10-08T01:01:11;98853.09;;;21.52;100.00
75895;BME280;64573;50.328;15.014;2023-10-08T01:03:37;98846.03;;;21.56;100.00
75895;BME280;64573;50.328;15.014;2023-10-08T01:06:10;98841.59;;;21.50;100.00
75895;BME280;64573;50.328;15.014;2023-10-08T01:08:36;98852.25;;;21.73;100.00
75895;BME280;64573;50.328;15.014;2023-10-08T01:11:22;98846.78;;;21.73;100.00
75895;BME280;64573;50.328;15.014;2023-10-08T01:13:56;98834.19;;;21.72;100.00
75895;BME280;64573;50.328;15.014;2023-10-08T01:16:24;98846.81;;;21.51;100.00
75895;BME280;64573;50.328;15.014;2023-10-08T01:18:52;98841.63;;;21.77;100.00
75895;BME280;64573;50.328;15.014;2023-10-08T01:21:20;98841.41;;;21.83;100.00
75895;BME280;64573;50.328;15.014;2023-10-08T01:23:54;98828.22;;;21.75;100.00
75895;BME280;64573;50.328;15.014;2023-10-08T01:26:20;98824.13;;;21.51;100.00
75895;BME280;64573;50.328;15.014;2023-10-08T01:28:47;98833.63;;;21.70;100.00
75895;BME280;64573;50.328;15.014;2023-10-08T01:31:13;98816.44;;;21.69;100.00
75895;BME280;64573;50.328;15.014;2023-10-08T01:33:40;98837.94;;;21.93;100.00
75895;BME280;64573;50.328;15.014;2023-10-08T01:36:16;98837.31;;;21.81;100.00
75895;BME280;64573;50.328;15.014;2023-10-08T01:38:41;98834.16;;;21.67;100.00
75895;BME280;64573;50.328;15.014;2023-10-08T01:41:08;98827.22;;;21.81;100.00
75895;BME280;64573;50.328;15.014;2023-10-08T01:43:48;98820.31;;;21.73;100.00
75895;BME280;64573;50.328;15.014;2023-10-08T01:48:44;98825.09;;;21.88;100.00
75895;BME280;64573;50.328;15.014;2023-10-08T01:51:10;98819.63;;;21.61;100.00
75895;BME280;64573;50.328;15.014;2023-10-08T01:53:37;98833.63;;;21.97;100.00
75895;BME280;64573;50.328;15.014;2023-10-08T01:56:04;98828.38;;;21.90;100.00
75895;BME280;64573;50.328;15.014;2023-10-08T01:58:30;98823.19;;;21.89;100.00
75895;BME280;64573;50.328;15.014;2023-10-08T02:00:55;98830.75;;;21.82;100.00
75895;BME280;64573;50.328;15.014;2023-10-08T02:03:25;98827.22;;;21.81;100.00
75895;BME280;64573;50.328;15.014;2023-10-08T02:05:50;98830.69;;;22.03;100.00
75895;BME280;64573;50.328;15.014;2023-10-08T02:08:19;98828.06;;;21.87;100.00
75895;BME280;64573;50.328;15.014;2023-10-08T02:10:45;98824.88;;;21.95;100.00
75895;BME280;64573;50.328;15.014;2023-10-08T02:13:13;98845.72;;;21.79;100.00
75895;BME280;64573;50.328;15.014;2023-10-08T02:18:06;98830.38;;;22.00;100.00
75895;BME280;64573;50.328;15.014;2023-10-08T02:20:32;98845.06;;;22.21;100.00
75895;BME280;64573;50.328;15.014;2023-10-08T02:22:58;98836.56;;;21.90;100.00
75895;BME280;64573;50.328;15.014;2023-10-08T02:25:25;98832.69;;;21.86;100.00
75895;BME280;64573;50.328;15.014;2023-10-08T02:27:50;98841.88;;;22.02;100.00
75895;BME280;64573;50.328;15.014;2023-10-08T02:30:16;98851.19;;;22.06;100.00
75895;BME280;64573;50.328;15.014;2023-10-08T02:32:43;98836.97;;;22.04;100.00
75895;BME280;64573;50.328;15.014;2023-10-08T02:35:09;98846.53;;;22.07;100.00
75895;BME280;64573;50.328;15.014;2023-10-08T02:37:37;98853.75;;;22.13;100.00
75895;BME280;64573;50.328;15.014;2023-10-08T02:40:09;98836.41;;;22.02;100.00
75895;BME280;64573;50.328;15.014;2023-10-08T02:42:54;98840.38;;;21.89;100.00
75895;BME280;64573;50.328;15.014;2023-10-08T02:47:55;98831.16;;;21.95;100.00
75895;BME280;64573;50.328;15.014;2023-10-08T02:50:21;98838.94;;;22.09;100.00
75895;BME280;64573;50.328;15.014;2023-10-08T02:52:48;98832.34;;;22.37;100.00
75895;BME280;64573;50.328;15.014;2023-10-08T02:55:16;98836.38;;;21.97;100.00
75895;BME280;64573;50.328;15.014;2023-10-08T02:57:59;98836.38;;;22.24;100.00
75895;BME280;64573;50.328;15.014;2023-10-08T03:00:27;98841.34;;;22.32;100.00
75895;BME280;64573;50.328;15.014;2023-10-08T03:02:56;98841.19;;;22.49;100.00
75895;BME280;64573;50.328;15.014;2023-10-08T03:05:21;98844.31;;;22.30;100.00
75895;BME280;64573;50.328;15.014;2023-10-08T03:07:47;98832.34;;;22.74;100.00
75895;BME280;64573;50.328;15.014;2023-10-08T03:10:16;98809.66;;;22.36;100.00
75895;BME280;64573;50.328;15.014;2023-10-08T03:12:45;98826.09;;;23.31;100.00
75895;BME280;64573;50.328;15.014;2023-10-08T03:15:15;98838.06;;;22.67;100.00
75895;BME280;64573;50.328;15.014;2023-10-08T03:17:53;98834.13;;;22.95;100.00
75895;BME280;64573;50.328;15.014;2023-10-08T03:20:19;98840.25;;;22.70;100.00
75895;BME280;64573;50.328;15.014;2023-10-08T03:23:07;98841.88;;;23.03;100.00
75895;BME280;64573;50.328;15.014;2023-10-08T03:25:56;98837.41;;;22.92;100.00
75895;BME280;64573;50.328;15.014;2023-10-08T03:28:37;98845.06;;;22.95;100.00
75895;BME280;64573;50.328;15.014;2023-10-08T03:31:04;98843.53;;;22.72;100.00
75895;BME280;64573;50.328;15.014;2023-10-08T03:33:39;98844.47;;;22.88;100.00
75895;BME280;64573;50.328;15.014;2023-10-08T03:36:06;98851.00;;;22.82;100.00
75895;BME280;64573;50.328;15.014;2023-10-08T03:38:48;98855.31;;;23.15;100.00
75895;BME280;64573;50.328;15.014;2023-10-08T03:41:17;98864.84;;;22.70;100.00
75895;BME280;64573;50.328;15.014;2023-10-08T03:43:44;98866.88;;;22.85;100.00
75895;BME280;64573;50.328;15.014;2023-10-08T03:46:19;98877.41;;;22.07;100.00
75895;BME280;64573;50.328;15.014;2023-10-08T03:48:47;98899.75;;;22.26;100.00
75895;BME280;64573;50.328;15.014;2023-10-08T03:51:15;98928.88;;;20.27;100.00
75895;BME280;64573;50.328;15.014;2023-10-08T03:53:45;98958.56;;;18.12;100.00
75895;BME280;64573;50.328;15.014;2023-10-08T03:56:27;98953.13;;;17.46;100.00
75895;BME280;64573;50.328;15.014;2023-10-08T03:58:57;99014.81;;;17.07;100.00
75895;BME280;64573;50.328;15.014;2023-10-08T04:01:26;98971.84;;;16.29;100.00
75895;BME280;64573;50.328;15.014;2023-10-08T04:03:55;98990.69;;;16.11;100.00
75895;BME280;64573;50.328;15.014;2023-10-08T04:06:26;98978.22;;;16.10;100.00
75895;BME280;64573;50.328;15.014;2023-10-08T04:08:56;99012.34;;;16.11;100.00
75895;BME280;64573;50.328;15.014;2023-10-08T04:11:31;98958.22;;;16.11;100.00
75895;BME280;64573;50.328;15.014;2023-10-08T04:14:01;99022.31;;;16.17;100.00
75895;BME280;64573;50.328;15.014;2023-10-08T04:18:56;99026.50;;;16.06;100.00
75895;BME280;64573;50.328;15.014;2023-10-08T04:21:22;99046.06;;;16.08;100.00
75895;BME280;64573;50.328;15.014;2023-10-08T04:23:53;99040.81;;;16.13;100.00
75895;BME280;64573;50.328;15.014;2023-10-08T04:26:21;99058.16;;;15.99;100.00
75895;BME280;64573;50.328;15.014;2023-10-08T04:28:50;99071.69;;;15.99;100.00
75895;BME280;64573;50.328;15.014;2023-10-08T04:31:20;99078.00;;;15.86;100.00
75895;BME280;64573;50.328;15.014;2023-10-08T04:33:50;99086.28;;;15.85;100.00
75895;BME280;64573;50.328;15.014;2023-10-08T04:36:16;99070.19;;;16.16;100.00
75895;BME280;64573;50.328;15.014;2023-10-08T04:38:45;99063.78;;;15.97;100.00
75895;BME280;64573;50.328;15.014;2023-10-08T04:41:16;99071.72;;;15.86;100.00
75895;BME280;64573;50.328;15.014;2023-10-08T04:43:45;99061.78;;;15.80;100.00
75895;BME280;64573;50.328;15.014;2023-10-08T04:46:10;99073.84;;;15.70;100.00
75895;BME280;64573;50.328;15.014;2023-10-08T04:48:47;99071.72;;;15.86;100.00
75895;BME280;64573;50.328;15.014;2023-10-08T04:51:12;99069.09;;;15.53;100.00
75895;BME280;64573;50.328;15.014;2023-10-08T04:53:40;99097.97;;;15.79;100.00
75895;BME280;64573;50.328;15.014;2023-10-08T04:56:11;99122.94;;;15.54;100.00
75895;BME280;64573;50.328;15.014;2023-10-08T04:58:46;99107.34;;;15.63;100.00
75895;BME280;64573;50.328;15.014;2023-10-08T05:01:13;99108.59;;;15.54;100.00
75895;BME280;64573;50.328;15.014;2023-10-08T05:06:14;99103.84;;;15.09;100.00
75895;BME280;64573;50.328;15.014;2023-10-08T05:08:52;99105.47;;;14.84;100.00
75895;BME280;64573;50.328;15.014;2023-10-08T05:11:23;99128.06;;;14.56;100.00
75895;BME280;64573;50.328;15.014;2023-10-08T05:13:53;99118.97;;;14.71;100.00
75895;BME280;64573;50.328;15.014;2023-10-08T05:16:31;99112.69;;;14.57;100.00
75895;BME280;64573;50.328;15.014;2023-10-08T05:19:10;99131.16;;;14.60;100.00
75895;BME280;64573;50.328;15.014;2023-10-08T05:22:01;99123.03;;;14.47;100.00
75895;BME280;64573;50.328;15.014;2023-10-08T05:24:42;99143.72;;;14.40;100.00
75895;BME280;64573;50.328;15.014;2023-10-08T05:27:16;99155.06;;;14.63;100.00
75895;BME280;64573;50.328;15.014;2023-10-08T05:32:27;99181.72;;;14.45;100.00
75895;BME280;64573;50.328;15.014;2023-10-08T05:35:04;99175.19;;;14.26;100.00
75895;BME280;64573;50.328;15.014;2023-10-08T05:37:41;99224.66;;;14.05;100.00
75895;BME280;64573;50.328;15.014;2023-10-08T05:40:08;99239.44;;;14.44;100.00
75895;BME280;64573;50.328;15.014;2023-10-08T05:42:59;99228.09;;;14.20;100.00
75895;BME280;64573;50.328;15.014;2023-10-08T05:45:39;99248.50;;;14.01;100.00
75895;BME280;64573;50.328;15.014;2023-10-08T05:48:04;99252.72;;;14.45;100.00
75895;BME280;64573;50.328;15.014;2023-10-08T05:50:40;99261.84;;;14.44;100.00
75895;BME280;64573;50.328;15.014;2023-10-08T05:53:16;99270.59;;;14.46;100.00
75895;BME280;64573;50.328;15.014;2023-10-08T05:55:52;99310.59;;;14.36;100.00
75895;BME280;64573;50.328;15.014;2023-10-08T05:58:26;99304.22;;;14.16;100.00
75895;BME280;64573;50.328;15.014;2023-10-08T06:01:02;99312.09;;;14.17;100.00
75895;BME280;64573;50.328;15.014;2023-10-08T06:03:33;99309.25;;;14.53;100.00
75895;BME280;64573;50.328;15.014;2023-10-08T06:06:21;99323.47;;;14.69;100.00
75895;BME280;64573;50.328;15.014;2023-10-08T06:08:47;99329.41;;;14.29;100.00
75895;BME280;64573;50.328;15.014;2023-10-08T06:11:34;99331.06;;;14.02;100.00
75895;BME280;64573;50.328;15.014;2023-10-08T06:14:05;99350.97;;;14.51;100.00
75895;BME280;64573;50.328;15.014;2023-10-08T06:16:48;99350.28;;;14.42;100.00
75895;BME280;64573;50.328;15.014;2023-10-08T06:19:27;99363.50;;;14.09;100.00
75895;BME280;64573;50.328;15.014;2023-10-08T06:21:52;99372.28;;;14.18;100.00
75895;BME280;64573;50.328;15.014;2023-10-08T06:24:18;99356.63;;;14.06;100.00
75895;BME280;64573;50.328;15.014;2023-10-08T06:26:45;99360.03;;;13.94;100.00
75895;BME280;64573;50.328;15.014;2023-10-08T06:29:14;99375.88;;;14.03;100.00
75895;BME280;64573;50.328;15.014;2023-10-08T06:31:45;99383.28;;;13.95;100.00
75895;BME280;64573;50.328;15.014;2023-10-08T06:34:16;99370.72;;;14.30;100.00
75895;BME280;64573;50.328;15.014;2023-10-08T06:36:46;99375.16;;;14.16;100.00
75895;BME280;64573;50.328;15.014;2023-10-08T06:39:11;99409.81;;;14.13;100.00
75895;BME280;64573;50.328;15.014;2023-10-08T06:41:43;99420.03;;;14.45;100.00
75895;BME280;64573;50.328;15.014;2023-10-08T06:44:08;99417.81;;;13.85;100.00
75895;BME280;64573;50.328;15.014;2023-10-08T06:46:39;99445.69;;;13.92;100.00
75895;BME280;64573;50.328;15.014;2023-10-08T06:49:07;99451.53;;;13.95;100.00
75895;BME280;64573;50.328;15.014;2023-10-08T06:51:39;99459.28;;;14.26;100.00
75895;BME280;64573;50.328;15.014;2023-10-08T06:54:06;99469.00;;;14.42;100.00
75895;BME280;64573;50.328;15.014;2023-10-08T06:59:03;99461.66;;;15.13;100.00
75895;BME280;64573;50.328;15.014;2023-10-08T07:01:29;99463.47;;;15.06;100.00
75895;BME280;64573;50.328;15.014;2023-10-08T07:04:05;99481.91;;;14.96;100.00
75895;BME280;64573;50.328;15.014;2023-10-08T07:06:32;99502.25;;;15.27;100.00
75895;BME280;64573;50.328;15.014;2023-10-08T07:08:58;99501.47;;;15.33;100.00
75895;BME280;64573;50.328;15.014;2023-10-08T07:11:25;99492.41;;;14.84;100.00
75895;BME280;64573;50.328;15.014;2023-10-08T07:13:52;99508.19;;;14.81;100.00
75895;BME280;64573;50.328;15.014;2023-10-08T07:16:18;99512.66;;;14.46;100.00
75895;BME280;64573;50.328;15.014;2023-10-08T07:31:39;99511.38;;;15.19;100.00
75895;BME280;64573;50.328;15.014;2023-10-08T07:34:07;99514.44;;;15.09;100.00
75895;BME280;64573;50.328;15.014;2023-10-08T07:39:00;99545.97;;;15.02;100.00
75895;BME280;64573;50.328;15.014;2023-10-08T07:43:58;99550.75;;;14.79;100.00
75895;BME280;64573;50.328;15.014;2023-10-08T07:48:56;99552.03;;;14.83;100.00
75895;BME280;64573;50.328;15.014;2023-10-08T08:01:23;99582.31;;;15.00;100.00
75895;BME280;64573;50.328;15.014;2023-10-08T08:03:51;99585.56;;;14.95;100.00
75895;BME280;64573;50.328;15.014;2023-10-08T08:06:17;99584.75;;;14.95;100.00
75895;BME280;64573;50.328;15.014;2023-10-08T08:08:42;99596.25;;;14.60;100.00
75895;BME280;64573;50.328;15.014;2023-10-08T08:11:09;99598.22;;;15.44;100.00
75895;BME280;64573;50.328;15.014;2023-10-08T08:16:04;99594.38;;;15.32;100.00
75895;BME280;64573;50.328;15.014;2023-10-08T08:21:03;99625.44;;;15.42;100.00
75895;BME280;64573;50.328;15.014;2023-10-08T08:26:04;99607.97;;;15.66;100.00
75895;BME280;64573;50.328;15.014;2023-10-08T08:31:12;99615.53;;;15.22;100.00
75895;BME280;64573;50.328;15.014;2023-10-08T09:40:48;99704.47;;;15.66;100.00
75895;BME280;64573;50.328;15.014;2023-10-08T09:43:15;99717.50;;;15.84;100.00
75895;BME280;64573;50.328;15.014;2023-10-08T09:53:22;99733.81;;;15.97;100.00
75895;BME280;64573;50.328;15.014;2023-10-08T09:58:19;99737.09;;;16.20;100.00
75895;BME280;64573;50.328;15.014;2023-10-08T12:07:05;99726.84;;;22.42;100.00
75895;BME280;64573;50.328;15.014;2023-10-08T12:09:32;99731.72;;;20.80;100.00
75895;BME280;64573;50.328;15.014;2023-10-08T12:17:11;99720.72;;;21.46;100.00
75895;BME280;64573;50.328;15.014;2023-10-08T12:32:32;99724.63;;;20.79;100.00
75895;BME280;64573;50.328;15.014;2023-10-08T12:34:58;99746.63;;;19.41;100.00
75895;BME280;64573;50.328;15.014;2023-10-08T12:37:23;99739.09;;;19.74;100.00
75895;BME280;64573;50.328;15.014;2023-10-08T12:42:24;99728.94;;;19.63;100.00
75895;BME280;64573;50.328;15.014;2023-10-08T12:44:50;99733.28;;;19.71;100.00
75895;BME280;64573;50.328;15.014;2023-10-08T12:55:01;99732.31;;;19.83;100.00
75895;BME280;64573;50.328;15.014;2023-10-08T12:57:32;99736.78;;;20.21;100.00
75895;BME280;64573;50.328;15.014;2023-10-08T13:00:00;99737.44;;;19.73;100.00
75895;BME280;64573;50.328;15.014;2023-10-08T13:02:25;99735.63;;;20.10;100.00
75895;BME280;64573;50.328;15.014;2023-10-08T13:04:54;99731.53;;;20.45;100.00
75895;BME280;64573;50.328;15.014;2023-10-08T13:07:20;99727.34;;;19.49;100.00
75895;BME280;64573;50.328;15.014;2023-10-08T13:09:47;99729.03;;;20.00;100.00
75895;BME280;64573;50.328;15.014;2023-10-08T13:12:12;99731.06;;;19.54;100.00
75895;BME280;64573;50.328;15.014;2023-10-08T13:14:41;99731.69;;;19.56;100.00
75895;BME280;64573;50.328;15.014;2023-10-08T13:17:06;99736.56;;;20.23;100.00
75895;BME280;64573;50.328;15.014;2023-10-08T13:19:36;99739.91;;;19.50;100.00
75895;BME280;64573;50.328;15.014;2023-10-08T13:22:02;99744.28;;;19.19;100.00
75895;BME280;64573;50.328;15.014;2023-10-08T13:24:32;99747.13;;;19.63;100.00
75895;BME280;64573;50.328;15.014;2023-10-08T13:26:59;99749.59;;;18.50;100.00
75895;BME280;64573;50.328;15.014;2023-10-08T13:29:24;99747.47;;;18.58;100.00
75895;BME280;64573;50.328;15.014;2023-10-08T13:31:52;99749.13;;;18.59;100.00
75895;BME280;64573;50.328;15.014;2023-10-08T13:34:19;99742.34;;;18.10;100.00
75895;BME280;64573;50.328;15.014;2023-10-08T13:36:46;99741.09;;;18.26;100.00
75895;BME280;64573;50.328;15.014;2023-10-08T13:39:14;99731.53;;;18.04;100.00
75895;BME280;64573;50.328;15.014;2023-10-08T13:41:46;99730.78;;;19.06;100.00
75895;BME280;64573;50.328;15.014;2023-10-08T13:44:17;99722.16;;;18.71;100.00
75895;BME280;64573;50.328;15.014;2023-10-08T13:46:44;99732.66;;;19.69;99.75
75895;BME280;64573;50.328;15.014;2023-10-08T13:49:13;99741.25;;;20.34;96.24
75895;BME280;64573;50.328;15.014;2023-10-08T13:51:41;99748.06;;;20.43;100.00
75895;BME280;64573;50.328;15.014;2023-10-08T13:54:09;99742.69;;;20.36;100.00
75895;BME280;64573;50.328;15.014;2023-10-08T13:56:36;99730.88;;;21.28;97.10
75895;BME280;64573;50.328;15.014;2023-10-08T13:59:03;99731.53;;;20.01;82.63
75895;BME280;64573;50.328;15.014;2023-10-08T14:01:31;99729.81;;;20.07;79.57
75895;BME280;64573;50.328;15.014;2023-10-08T14:04:00;99726.13;;;20.75;79.19
75895;BME280;64573;50.328;15.014;2023-10-08T14:06:36;99725.81;;;21.31;73.57
75895;BME280;64573;50.328;15.014;2023-10-08T14:09:05;99724.28;;;22.76;63.55
75895;BME280;64573;50.328;15.014;2023-10-08T14:11:36;99726.94;;;23.45;60.21
75895;BME280;64573;50.328;15.014;2023-10-08T14:14:02;99721.66;;;23.55;62.18
75895;BME280;64573;50.328;15.014;2023-10-08T14:16:34;99726.16;;;23.61;69.46
75895;BME280;64573;50.328;15.014;2023-10-08T14:18:59;99730.44;;;22.19;83.12
75895;BME280;64573;50.328;15.014;2023-10-08T14:21:29;99731.13;;;22.15;77.50
75895;BME280;64573;50.328;15.014;2023-10-08T14:24:03;99728.44;;;22.67;78.17
75895;BME280;64573;50.328;15.014;2023-10-08T14:26:30;99737.75;;;22.54;77.91
75895;BME280;64573;50.328;15.014;2023-10-08T14:29:02;99738.53;;;23.18;75.11
75895;BME280;64573;50.328;15.014;2023-10-08T14:31:36;99735.50;;;23.48;73.89
75895;BME280;64573;50.328;15.014;2023-10-08T14:34:04;99725.88;;;22.48;83.17
75895;BME280;64573;50.328;15.014;2023-10-08T14:36:32;99731.97;;;22.39;82.68
75895;BME280;64573;50.328;15.014;2023-10-08T14:39:16;99727.31;;;22.39;82.07
75895;BME280;64573;50.328;15.014;2023-10-08T14:41:53;99726.50;;;22.27;80.32
75895;BME280;64573;50.328;15.014;2023-10-08T14:44:37;99724.78;;;21.56;76.68
75895;BME280;64573;50.328;15.014;2023-10-08T14:47:04;99725.50;;;21.63;81.73
75895;BME280;64573;50.328;15.014;2023-10-08T14:49:29;99719.25;;;21.97;81.51
75895;BME280;64573;50.328;15.014;2023-10-08T14:51:55;99726.13;;;22.47;76.12
75895;BME280;64573;50.328;15.014;2023-10-08T14:54:20;99726.84;;;21.84;75.27
75895;BME280;64573;50.328;15.014;2023-10-08T14:56:46;99740.28;;;20.47;79.21
75895;BME280;64573;50.328;15.014;2023-10-08T14:59:11;99744.38;;;20.56;83.18
75895;BME280;64573;50.328;15.014;2023-10-08T15:01:37;99757.22;;;20.30;85.80
75895;BME280;64573;50.328;15.014;2023-10-08T15:04:03;99760.13;;;19.29;88.16
75895;BME280;64573;50.328;15.014;2023-10-08T15:06:31;99756.53;;;21.08;76.74
75895;BME280;64573;50.328;15.014;2023-10-08T15:08:56;99768.56;;;19.14;84.35
75895;BME280;64573;50.328;15.014;2023-10-08T15:11:22;99771.63;;;19.63;83.92
75895;BME280;64573;50.328;15.014;2023-10-08T15:13:48;99762.66;;;19.24;83.87
75895;BME280;64573;50.328;15.014;2023-10-08T15:16:21;99757.59;;;18.89;92.11
75895;BME280;64573;50.328;15.014;2023-10-08T15:18:49;99763.31;;;19.58;91.76
75895;BME280;64573;50.328;15.014;2023-10-08T15:21:14;99758.03;;;19.24;89.69
75895;BME280;64573;50.328;15.014;2023-10-08T15:23:40;99761.03;;;18.71;94.63
75895;BME280;64573;50.328;15.014;2023-10-08T15:26:06;99761.56;;;18.29;95.83
75895;BME280;64573;50.328;15.014;2023-10-08T15:28:32;99758.25;;;18.13;100.00
75895;BME280;64573;50.328;15.014;2023-10-08T15:30:58;99765.13;;;17.96;100.00
75895;BME280;64573;50.328;15.014;2023-10-08T15:33:24;99769.31;;;17.99;100.00
75895;BME280;64573;50.328;15.014;2023-10-08T15:35:52;99781.41;;;18.03;100.00
75895;BME280;64573;50.328;15.014;2023-10-08T15:38:17;99780.16;;;18.25;100.00
75895;BME280;64573;50.328;15.014;2023-10-08T15:40:43;99779.88;;;18.46;100.00
75895;BME280;64573;50.328;15.014;2023-10-08T15:43:09;99784.00;;;18.76;100.00
75895;BME280;64573;50.328;15.014;2023-10-08T15:45:36;99785.13;;;19.44;100.00
75895;BME280;64573;50.328;15.014;2023-10-08T15:48:02;99779.38;;;20.16;94.58
75895;BME280;64573;50.328;15.014;2023-10-08T15:50:30;99777.44;;;18.96;100.00
75895;BME280;64573;50.328;15.014;2023-10-08T15:52:58;99779.50;;;19.77;98.39
75895;BME280;64573;50.328;15.014;2023-10-08T15:55:23;99765.81;;;19.84;97.02
75895;BME280;64573;50.328;15.014;2023-10-08T15:57:49;99771.72;;;20.24;96.76
75895;BME280;64573;50.328;15.014;2023-10-08T16:00:14;99777.41;;;19.98;100.00
75895;BME280;64573;50.328;15.014;2023-10-08T16:02:40;99782.47;;;19.69;100.00
75895;BME280;64573;50.328;15.014;2023-10-08T16:05:05;99791.03;;;19.41;100.00
75895;BME280;64573;50.328;15.014;2023-10-08T16:07:35;99795.41;;;18.19;100.00
75895;BME280;64573;50.328;15.014;2023-10-08T16:10:01;99799.75;;;18.40;100.00
75895;BME280;64573;50.328;15.014;2023-10-08T16:12:26;99791.13;;;18.77;100.00
75895;BME280;64573;50.328;15.014;2023-10-08T16:14:52;99795.91;;;18.74;100.00
75895;BME280;64573;50.328;15.014;2023-10-08T16:17:18;99798.94;;;18.20;100.00
75895;BME280;64573;50.328;15.014;2023-10-08T16:22:10;99789.78;;;18.01;100.00
75895;BME280;64573;50.328;15.014;2023-10-08T16:24:36;99796.06;;;17.82;100.00
75895;BME280;64573;50.328;15.014;2023-10-08T16:27:02;99798.56;;;17.83;100.00
75895;BME280;64573;50.328;15.014;2023-10-08T16:29:27;99804.13;;;17.62;100.00
75895;BME280;64573;50.328;15.014;2023-10-08T16:31:56;99807.84;;;17.34;100.00
75895;BME280;64573;50.328;15.014;2023-10-08T16:34:21;99808.41;;;17.17;100.00
75895;BME280;64573;50.328;15.014;2023-10-08T16:36:47;99819.81;;;16.99;100.00
75895;BME280;64573;50.328;15.014;2023-10-08T16:39:13;99830.13;;;16.75;100.00
75895;BME280;64573;50.328;15.014;2023-10-08T16:41:45;99827.00;;;16.50;100.00
75895;BME280;64573;50.328;15.014;2023-10-08T16:44:10;99835.03;;;16.31;100.00
75895;BME280;64573;50.328;15.014;2023-10-08T16:46:39;99841.81;;;16.20;100.00
75895;BME280;64573;50.328;15.014;2023-10-08T16:49:06;99835.94;;;15.88;100.00
75895;BME280;64573;50.328;15.014;2023-10-08T16:51:31;99827.34;;;15.63;100.00
75895;BME280;64573;50.328;15.014;2023-10-08T16:53:58;99819.94;;;15.29;100.00
75895;BME280;64573;50.328;15.014;2023-10-08T16:56:24;99832.66;;;15.14;100.00
75895;BME280;64573;50.328;15.014;2023-10-08T16:58:49;99833.28;;;15.16;100.00
75895;BME280;64573;50.328;15.014;2023-10-08T17:01:15;99825.25;;;14.72;100.00
75895;BME280;64573;50.328;15.014;2023-10-08T17:03:40;99830.34;;;14.81;100.00
75895;BME280;64573;50.328;15.014;2023-10-08T17:06:06;99835.00;;;14.43;100.00
75895;BME280;64573;50.328;15.014;2023-10-08T17:08:34;99824.13;;;14.51;100.00
75895;BME280;64573;50.328;15.014;2023-10-08T17:11:04;99828.41;;;14.75;100.00
75895;BME280;64573;50.328;15.014;2023-10-08T17:13:31;99841.25;;;14.88;100.00
75895;BME280;64573;50.328;15.014;2023-10-08T17:15:56;99839.66;;;14.94;100.00
75895;BME280;64573;50.328;15.014;2023-10-08T17:18:22;99845.25;;;14.62;100.00
75895;BME280;64573;50.328;15.014;2023-10-08T17:20:49;99846.56;;;14.52;100.00
75895;BME280;64573;50.328;15.014;2023-10-08T17:23:15;99858.00;;;14.69;100.00
75895;BME280;64573;50.328;15.014;2023-10-08T17:25:40;99862.78;;;14.29;100.00
75895;BME280;64573;50.328;15.014;2023-10-08T17:28:08;99862.41;;;14.32;100.00
75895;BME280;64573;50.328;15.014;2023-10-08T17:30:35;99855.03;;;14.49;100.00
75895;BME280;64573;50.328;15.014;2023-10-08T17:33:01;99865.31;;;14.45;100.00
75895;BME280;64573;50.328;15.014;2023-10-08T17:35:27;99854.66;;;14.52;100.00
75895;BME280;64573;50.328;15.014;2023-10-08T17:37:53;99863.91;;;14.20;100.00
75895;BME280;64573;50.328;15.014;2023-10-08T17:40:19;99874.03;;;14.32;100.00
75895;BME280;64573;50.328;15.014;2023-10-08T17:42:48;99873.63;;;14.06;100.00
75895;BME280;64573;50.328;15.014;2023-10-08T17:45:14;99877.47;;;13.89;100.00